sensor_id;sensor_type;location;lat;lon;timestamp;pressure;altitude;pressure_sealevel;temperature;humidity
69219;BME280;56232;53.384;-2.732;2023-07-29T00:02:14;99880.03;;;18.40;32.00
69219;BME280;56232;53.384;-2.732;2023-07-29T00:04:39;99884.17;;;18.48;32.13
69219;BME280;56232;53.384;-2.732;2023-07-29T00:07:05;99883.56;;;19.11;31.84
69219;BME280;56232;53.384;-2.732;2023-07-29T00:09:30;99884.51;;;19.08;31.89
69219;BME280;56232;53.384;-2.732;2023-07-29T00:11:56;99884.64;;;19.54;31.67
69219;BME280;56232;53.384;-2.732;2023-07-29T00:14:22;99885.70;;;17.74;31.91
69219;BME280;56232;53.384;-2.732;2023-07-29T00:16:47;99882.15;;;18.21;31.88
69219;BME280;56232;53.384;-2.732;2023-07-29T00:19:14;99881.04;;;18.75;31.96
69219;BME280;56232;53.384;-2.732;2023-07-29T00:21:38;99882.03;;;18.10;31.90
69219;BME280;56232;53.384;-2.732;2023-07-29T00:24:04;99868.80;;;18.51;32.08
69219;BME280;56232;53.384;-2.732;2023-07-29T00:26:30;99869.06;;;18.00;32.22
69219;BME280;56232;53.384;-2.732;2023-07-29T00:28:55;99864.52;;;18.56;32.17
69219;BME280;56232;53.384;-2.732;2023-07-29T00:31:21;99859.80;;;17.96;32.02
69219;BME280;56232;53.384;-2.732;2023-07-29T00:33:46;99862.85;;;18.03;32.09
69219;BME280;56232;53.384;-2.732;2023-07-29T00:36:13;99856.16;;;18.02;31.92
69219;BME280;56232;53.384;-2.732;2023-07-29T00:38:38;99851.30;;;18.56;31.90
69219;BME280;56232;53.384;-2.732;2023-07-29T00:41:03;99850.31;;;17.91;31.99
69219;BME280;56232;53.384;-2.732;2023-07-29T00:43:29;99849.70;;;18.55;31.95
69219;BME280;56232;53.384;-2.732;2023-07-29T00:45:55;99850.38;;;18.71;31.78
69219;BME280;56232;53.384;-2.732;2023-07-29T00:48:20;99846.18;;;18.18;31.72
69219;BME280;56232;53.384;-2.732;2023-07-29T00:50:46;99850.24;;;18.25;31.50
69219;BME280;56232;53.384;-2.732;2023-07-29T00:53:12;99844.78;;;18.89;31.51
69219;BME280;56232;53.384;-2.732;2023-07-29T00:55:37;99845.92;;;18.35;31.52
69219;BME280;56232;53.384;-2.732;2023-07-29T00:58:03;99847.77;;;18.41;31.47
69219;BME280;56232;53.384;-2.732;2023-07-29T01:00:28;99846.39;;;18.44;31.53
69219;BME280;56232;53.384;-2.732;2023-07-29T01:02:54;99842.75;;;19.04;31.50
69219;BME280;56232;53.384;-2.732;2023-07-29T01:05:19;99840.98;;;18.40;31.58
69219;BME280;56232;53.384;-2.732;2023-07-29T01:07:50;99848.88;;;17.94;31.42
69219;BME280;56232;53.384;-2.732;2023-07-29T01:10:29;99845.64;;;18.55;31.18
69219;BME280;56232;53.384;-2.732;2023-07-29T01:12:42;99840.38;;;18.59;31.22
69219;BME280;56232;53.384;-2.732;2023-07-29T01:15:09;99837.28;;;18.59;31.40
69219;BME280;56232;53.384;-2.732;2023-07-29T01:17:33;99835.62;;;18.70;31.34
69219;BME280;56232;53.384;-2.732;2023-07-29T01:20:00;99830.29;;;18.77;31.22
69219;BME280;56232;53.384;-2.732;2023-07-29T01:22:19;99828.99;;;18.79;31.41
69219;BME280;56232;53.384;-2.732;2023-07-29T01:24:44;99826.99;;;18.64;31.45
69219;BME280;56232;53.384;-2.732;2023-07-29T01:27:10;99829.17;;;18.38;31.52
69219;BME280;56232;53.384;-2.732;2023-07-29T01:29:35;99824.02;;;18.29;31.59
69219;BME280;56232;53.384;-2.732;2023-07-29T01:32:06;99824.12;;;19.49;31.40
69219;BME280;56232;53.384;-2.732;2023-07-29T01:34:30;99822.11;;;18.46;31.26
69219;BME280;56232;53.384;-2.732;2023-07-29T01:36:54;99821.42;;;18.41;31.25
69219;BME280;56232;53.384;-2.732;2023-07-29T01:39:20;99824.57;;;18.27;31.30
69219;BME280;56232;53.384;-2.732;2023-07-29T01:41:43;99821.24;;;18.22;31.34
69219;BME280;56232;53.384;-2.732;2023-07-29T01:44:09;99826.04;;;18.28;31.34
69219;BME280;56232;53.384;-2.732;2023-07-29T01:46:34;99825.28;;;18.38;31.68
69219;BME280;56232;53.384;-2.732;2023-07-29T01:49:00;99817.39;;;18.88;31.58
69219;BME280;56232;53.384;-2.732;2023-07-29T01:51:25;99822.37;;;18.16;31.55
69219;BME280;56232;53.384;-2.732;2023-07-29T01:53:51;99818.65;;;18.08;31.45
69219;BME280;56232;53.384;-2.732;2023-07-29T01:56:17;99819.39;;;18.65;31.44
69219;BME280;56232;53.384;-2.732;2023-07-29T01:58:42;99816.08;;;18.04;31.56
69219;BME280;56232;53.384;-2.732;2023-07-29T02:01:08;99812.43;;;17.92;31.67
69219;BME280;56232;53.384;-2.732;2023-07-29T02:03:33;99811.61;;;17.84;31.86
69219;BME280;56232;53.384;-2.732;2023-07-29T02:05:59;99806.91;;;17.95;32.01
69219;BME280;56232;53.384;-2.732;2023-07-29T02:08:25;99805.46;;;18.64;31.77
69219;BME280;56232;53.384;-2.732;2023-07-29T02:10:50;99806.26;;;18.71;32.02
69219;BME280;56232;53.384;-2.732;2023-07-29T02:13:16;99808.69;;;18.01;31.83
69219;BME280;56232;53.384;-2.732;2023-07-29T02:15:41;99813.75;;;17.88;32.02
69219;BME280;56232;53.384;-2.732;2023-07-29T02:18:07;99810.93;;;17.93;31.83
69219;BME280;56232;53.384;-2.732;2023-07-29T02:20:33;99813.09;;;18.34;31.75
69219;BME280;56232;53.384;-2.732;2023-07-29T02:22:58;99815.62;;;18.14;31.89
69219;BME280;56232;53.384;-2.732;2023-07-29T02:25:24;99814.86;;;18.60;32.15
69219;BME280;56232;53.384;-2.732;2023-07-29T02:27:49;99817.52;;;18.64;32.18
69219;BME280;56232;53.384;-2.732;2023-07-29T02:30:15;99817.32;;;17.99;32.17
69219;BME280;56232;53.384;-2.732;2023-07-29T02:32:41;99815.98;;;17.83;32.19
69219;BME280;56232;53.384;-2.732;2023-07-29T02:35:07;99814.56;;;18.06;32.38
69219;BME280;56232;53.384;-2.732;2023-07-29T02:37:32;99816.30;;;17.30;32.79
69219;BME280;56232;53.384;-2.732;2023-07-29T02:39:58;99824.18;;;17.13;33.59
69219;BME280;56232;53.384;-2.732;2023-07-29T02:42:23;99823.42;;;17.30;33.42
69219;BME280;56232;53.384;-2.732;2023-07-29T02:44:49;99828.81;;;17.18;33.36
69219;BME280;56232;53.384;-2.732;2023-07-29T02:47:15;99822.99;;;16.94;33.92
69219;BME280;56232;53.384;-2.732;2023-07-29T02:49:40;99825.28;;;16.93;34.05
69219;BME280;56232;53.384;-2.732;2023-07-29T02:52:06;99821.45;;;16.99;34.01
69219;BME280;56232;53.384;-2.732;2023-07-29T02:54:31;99816.24;;;17.92;33.50
69219;BME280;56232;53.384;-2.732;2023-07-29T02:56:57;99815.78;;;17.66;33.78
69219;BME280;56232;53.384;-2.732;2023-07-29T02:59:22;99813.03;;;16.53;33.73
69219;BME280;56232;53.384;-2.732;2023-07-29T03:01:48;99803.96;;;17.25;33.69
69219;BME280;56232;53.384;-2.732;2023-07-29T03:04:15;99799.44;;;16.73;33.75
69219;BME280;56232;53.384;-2.732;2023-07-29T03:06:39;99800.11;;;16.80;33.53
69219;BME280;56232;53.384;-2.732;2023-07-29T03:09:05;99803.75;;;16.99;33.67
69219;BME280;56232;53.384;-2.732;2023-07-29T03:11:31;99804.89;;;17.17;33.50
69219;BME280;56232;53.384;-2.732;2023-07-29T03:13:56;99800.01;;;17.36;33.56
69219;BME280;56232;53.384;-2.732;2023-07-29T03:16:21;99790.62;;;18.15;33.17
69219;BME280;56232;53.384;-2.732;2023-07-29T03:18:48;99796.41;;;17.59;32.91
69219;BME280;56232;53.384;-2.732;2023-07-29T03:21:13;99797.46;;;17.53;32.64
69219;BME280;56232;53.384;-2.732;2023-07-29T03:23:38;99799.47;;;17.11;32.75
69219;BME280;56232;53.384;-2.732;2023-07-29T03:26:04;99798.37;;;17.60;32.88
69219;BME280;56232;53.384;-2.732;2023-07-29T03:28:31;99797.53;;;17.66;33.03
69219;BME280;56232;53.384;-2.732;2023-07-29T03:30:55;99797.06;;;17.73;32.79
69219;BME280;56232;53.384;-2.732;2023-07-29T03:33:20;99801.10;;;17.88;32.59
69219;BME280;56232;53.384;-2.732;2023-07-29T03:35:45;99796.16;;;17.87;32.78
69219;BME280;56232;53.384;-2.732;2023-07-29T03:38:11;99790.76;;;17.84;32.72
69219;BME280;56232;53.384;-2.732;2023-07-29T03:40:36;99786.45;;;17.38;32.62
69219;BME280;56232;53.384;-2.732;2023-07-29T03:43:02;99787.25;;;17.91;32.41
69219;BME280;56232;53.384;-2.732;2023-07-29T03:45:28;99787.72;;;17.92;32.08
69219;BME280;56232;53.384;-2.732;2023-07-29T03:47:53;99789.71;;;17.90;32.49
69219;BME280;56232;53.384;-2.732;2023-07-29T03:50:19;99790.25;;;17.94;32.25
69219;BME280;56232;53.384;-2.732;2023-07-29T03:52:45;99792.09;;;17.99;32.68
69219;BME280;56232;53.384;-2.732;2023-07-29T03:55:10;99795.57;;;17.94;33.04
69219;BME280;56232;53.384;-2.732;2023-07-29T03:57:36;99798.14;;;17.91;33.00
69219;BME280;56232;53.384;-2.732;2023-07-29T04:00:02;99799.97;;;17.85;32.75
69219;BME280;56232;53.384;-2.732;2023-07-29T04:02:27;99795.53;;;17.91;32.65
69219;BME280;56232;53.384;-2.732;2023-07-29T04:04:53;99795.67;;;17.87;32.34
69219;BME280;56232;53.384;-2.732;2023-07-29T04:07:18;99790.11;;;17.80;32.83
69219;BME280;56232;53.384;-2.732;2023-07-29T04:09:44;99784.98;;;17.87;32.67
69219;BME280;56232;53.384;-2.732;2023-07-29T04:12:09;99787.35;;;17.90;32.57
69219;BME280;56232;53.384;-2.732;2023-07-29T04:14:35;99788.65;;;17.84;32.42
69219;BME280;56232;53.384;-2.732;2023-07-29T04:17:00;99791.64;;;17.91;32.42
69219;BME280;56232;53.384;-2.732;2023-07-29T04:19:26;99792.77;;;17.97;32.60
69219;BME280;56232;53.384;-2.732;2023-07-29T04:21:51;99791.70;;;17.51;32.46
69219;BME280;56232;53.384;-2.732;2023-07-29T04:24:17;99784.70;;;17.39;32.51
69219;BME280;56232;53.384;-2.732;2023-07-29T04:26:43;99793.29;;;17.80;32.24
69219;BME280;56232;53.384;-2.732;2023-07-29T04:29:08;99791.97;;;17.87;32.07
69219;BME280;56232;53.384;-2.732;2023-07-29T04:31:34;99792.35;;;17.93;32.09
69219;BME280;56232;53.384;-2.732;2023-07-29T04:33:59;99797.96;;;17.96;32.21
69219;BME280;56232;53.384;-2.732;2023-07-29T04:36:25;99798.83;;;17.61;32.18
69219;BME280;56232;53.384;-2.732;2023-07-29T04:38:51;99799.01;;;18.16;31.69
69219;BME280;56232;53.384;-2.732;2023-07-29T04:41:16;99792.17;;;17.68;32.23
69219;BME280;56232;53.384;-2.732;2023-07-29T04:43:42;99791.37;;;18.23;32.11
69219;BME280;56232;53.384;-2.732;2023-07-29T04:46:08;99798.80;;;18.22;31.77
69219;BME280;56232;53.384;-2.732;2023-07-29T04:48:33;99795.93;;;17.99;32.10
69219;BME280;56232;53.384;-2.732;2023-07-29T04:50:59;99793.18;;;17.98;32.64
69219;BME280;56232;53.384;-2.732;2023-07-29T04:53:24;99793.95;;;17.79;32.19
69219;BME280;56232;53.384;-2.732;2023-07-29T04:55:50;99794.19;;;17.54;32.63
69219;BME280;56232;53.384;-2.732;2023-07-29T04:58:16;99793.49;;;17.06;32.90
69219;BME280;56232;53.384;-2.732;2023-07-29T05:00:41;99788.81;;;17.62;32.52
69219;BME280;56232;53.384;-2.732;2023-07-29T05:03:07;99790.77;;;17.49;32.66
69219;BME280;56232;53.384;-2.732;2023-07-29T05:05:32;99791.01;;;17.42;32.63
69219;BME280;56232;53.384;-2.732;2023-07-29T05:07:58;99792.28;;;17.40;32.93
69219;BME280;56232;53.384;-2.732;2023-07-29T05:10:24;99789.66;;;17.31;32.69
69219;BME280;56232;53.384;-2.732;2023-07-29T05:12:49;99789.74;;;17.30;32.71
69219;BME280;56232;53.384;-2.732;2023-07-29T05:15:16;99791.29;;;17.31;32.85
69219;BME280;56232;53.384;-2.732;2023-07-29T05:17:41;99790.08;;;17.36;32.44
69219;BME280;56232;53.384;-2.732;2023-07-29T05:20:07;99791.65;;;17.43;32.79
69219;BME280;56232;53.384;-2.732;2023-07-29T05:22:31;99785.73;;;17.44;32.95
69219;BME280;56232;53.384;-2.732;2023-07-29T05:24:57;99783.70;;;17.61;32.82
69219;BME280;56232;53.384;-2.732;2023-07-29T05:27:22;99783.15;;;17.83;33.24
69219;BME280;56232;53.384;-2.732;2023-07-29T05:29:48;99786.14;;;18.00;32.70
69219;BME280;56232;53.384;-2.732;2023-07-29T05:32:14;99784.36;;;17.69;32.78
69219;BME280;56232;53.384;-2.732;2023-07-29T05:34:39;99780.94;;;17.91;32.52
69219;BME280;56232;53.384;-2.732;2023-07-29T05:37:05;99780.30;;;18.59;32.16
69219;BME280;56232;53.384;-2.732;2023-07-29T05:39:30;99779.50;;;18.14;32.62
69219;BME280;56232;53.384;-2.732;2023-07-29T05:41:55;99782.44;;;17.65;32.67
69219;BME280;56232;53.384;-2.732;2023-07-29T05:44:21;99785.06;;;18.41;32.35
69219;BME280;56232;53.384;-2.732;2023-07-29T05:46:46;99784.50;;;17.83;32.10
69219;BME280;56232;53.384;-2.732;2023-07-29T05:49:12;99786.01;;;17.78;32.53
69219;BME280;56232;53.384;-2.732;2023-07-29T05:51:37;99782.27;;;18.00;31.77
69219;BME280;56232;53.384;-2.732;2023-07-29T05:54:03;99779.44;;;17.98;31.94
69219;BME280;56232;53.384;-2.732;2023-07-29T05:56:28;99775.23;;;18.38;32.60
69219;BME280;56232;53.384;-2.732;2023-07-29T05:58:54;99783.77;;;17.76;32.69
69219;BME280;56232;53.384;-2.732;2023-07-29T06:01:19;99786.26;;;18.47;32.51
69219;BME280;56232;53.384;-2.732;2023-07-29T06:03:45;99790.41;;;18.50;32.16
69219;BME280;56232;53.384;-2.732;2023-07-29T06:06:10;99791.81;;;17.41;32.67
69219;BME280;56232;53.384;-2.732;2023-07-29T06:08:35;99793.89;;;19.09;32.44
69219;BME280;56232;53.384;-2.732;2023-07-29T06:11:06;99801.04;;;19.05;32.56
69219;BME280;56232;53.384;-2.732;2023-07-29T06:13:26;99802.01;;;19.07;32.15
69219;BME280;56232;53.384;-2.732;2023-07-29T06:15:52;99797.70;;;18.43;32.48
69219;BME280;56232;53.384;-2.732;2023-07-29T06:18:17;99802.40;;;18.81;33.04
69219;BME280;56232;53.384;-2.732;2023-07-29T06:20:43;99804.42;;;17.45;33.00
69219;BME280;56232;53.384;-2.732;2023-07-29T06:23:08;99814.28;;;17.80;33.24
69219;BME280;56232;53.384;-2.732;2023-07-29T06:25:34;99818.29;;;17.83;33.51
69219;BME280;56232;53.384;-2.732;2023-07-29T06:27:59;99819.11;;;17.46;33.72
69219;BME280;56232;53.384;-2.732;2023-07-29T06:30:25;99818.91;;;17.31;33.96
69219;BME280;56232;53.384;-2.732;2023-07-29T06:32:50;99811.05;;;17.22;34.25
69219;BME280;56232;53.384;-2.732;2023-07-29T06:35:16;99802.45;;;17.32;34.74
69219;BME280;56232;53.384;-2.732;2023-07-29T06:37:42;99799.73;;;17.51;35.01
69219;BME280;56232;53.384;-2.732;2023-07-29T06:40:08;99804.11;;;17.63;35.07
69219;BME280;56232;53.384;-2.732;2023-07-29T06:42:33;99801.49;;;17.61;34.89
69219;BME280;56232;53.384;-2.732;2023-07-29T06:44:59;99799.76;;;17.52;34.70
69219;BME280;56232;53.384;-2.732;2023-07-29T06:47:24;99802.83;;;17.49;34.87
69219;BME280;56232;53.384;-2.732;2023-07-29T06:49:50;99802.51;;;18.00;34.61
69219;BME280;56232;53.384;-2.732;2023-07-29T06:52:16;99799.95;;;17.66;34.69
69219;BME280;56232;53.384;-2.732;2023-07-29T06:54:41;99800.71;;;17.75;34.46
69219;BME280;56232;53.384;-2.732;2023-07-29T06:57:07;99804.10;;;17.62;35.14
69219;BME280;56232;53.384;-2.732;2023-07-29T06:59:32;99803.34;;;17.60;34.90
69219;BME280;56232;53.384;-2.732;2023-07-29T07:01:58;99805.68;;;17.66;34.37
69219;BME280;56232;53.384;-2.732;2023-07-29T07:04:23;99808.21;;;17.92;34.78
69219;BME280;56232;53.384;-2.732;2023-07-29T07:06:49;99812.72;;;17.70;34.04
69219;BME280;56232;53.384;-2.732;2023-07-29T07:09:15;99810.33;;;18.07;33.70
69219;BME280;56232;53.384;-2.732;2023-07-29T07:11:40;99810.51;;;18.32;33.57
69219;BME280;56232;53.384;-2.732;2023-07-29T07:14:06;99808.87;;;19.25;33.27
69219;BME280;56232;53.384;-2.732;2023-07-29T07:16:31;99810.69;;;19.70;33.06
69219;BME280;56232;53.384;-2.732;2023-07-29T07:18:57;99815.00;;;19.09;32.91
69219;BME280;56232;53.384;-2.732;2023-07-29T07:21:22;99818.97;;;18.92;32.85
69219;BME280;56232;53.384;-2.732;2023-07-29T07:23:49;99816.27;;;19.96;32.62
69219;BME280;56232;53.384;-2.732;2023-07-29T07:26:14;99814.84;;;19.60;32.74
69219;BME280;56232;53.384;-2.732;2023-07-29T07:28:39;99816.36;;;20.29;32.15
69219;BME280;56232;53.384;-2.732;2023-07-29T07:31:05;99819.97;;;21.22;30.60
69219;BME280;56232;53.384;-2.732;2023-07-29T07:33:30;99823.49;;;22.18;29.62
69219;BME280;56232;53.384;-2.732;2023-07-29T07:35:56;99817.41;;;26.32;27.32
69219;BME280;56232;53.384;-2.732;2023-07-29T07:38:21;99813.85;;;29.33;24.90
69219;BME280;56232;53.384;-2.732;2023-07-29T07:40:53;99813.11;;;31.25;22.81
69219;BME280;56232;53.384;-2.732;2023-07-29T07:43:12;99816.72;;;33.41;20.74
69219;BME280;56232;53.384;-2.732;2023-07-29T07:45:38;99812.65;;;34.90;19.25
69219;BME280;56232;53.384;-2.732;2023-07-29T07:48:04;99814.34;;;34.86;18.97
69219;BME280;56232;53.384;-2.732;2023-07-29T07:50:29;99825.14;;;34.59;18.69
69219;BME280;56232;53.384;-2.732;2023-07-29T07:52:54;99821.81;;;34.21;18.64
69219;BME280;56232;53.384;-2.732;2023-07-29T07:55:21;99826.91;;;32.25;19.55
69219;BME280;56232;53.384;-2.732;2023-07-29T07:57:45;99827.03;;;32.18;19.58
69219;BME280;56232;53.384;-2.732;2023-07-29T08:00:11;99827.83;;;33.98;18.77
69219;BME280;56232;53.384;-2.732;2023-07-29T08:02:36;99820.60;;;35.87;18.41
69219;BME280;56232;53.384;-2.732;2023-07-29T08:05:01;99828.59;;;36.03;17.64
69219;BME280;56232;53.384;-2.732;2023-07-29T08:07:27;99823.29;;;37.70;16.84
69219;BME280;56232;53.384;-2.732;2023-07-29T08:09:52;99824.28;;;34.45;17.81
69219;BME280;56232;53.384;-2.732;2023-07-29T08:12:18;99822.17;;;33.32;18.46
69219;BME280;56232;53.384;-2.732;2023-07-29T08:14:43;99816.19;;;35.20;17.67
69219;BME280;56232;53.384;-2.732;2023-07-29T08:17:09;99818.64;;;35.75;17.29
69219;BME280;56232;53.384;-2.732;2023-07-29T08:19:34;99825.59;;;36.36;17.26
69219;BME280;56232;53.384;-2.732;2023-07-29T08:22:02;99825.64;;;33.35;18.36
69219;BME280;56232;53.384;-2.732;2023-07-29T08:24:25;99837.73;;;32.00;19.14
69219;BME280;56232;53.384;-2.732;2023-07-29T08:26:51;99837.21;;;30.50;19.78
69219;BME280;56232;53.384;-2.732;2023-07-29T08:29:16;99833.45;;;29.65;21.03
69219;BME280;56232;53.384;-2.732;2023-07-29T08:31:42;99829.76;;;28.12;22.06
69219;BME280;56232;53.384;-2.732;2023-07-29T08:34:07;99829.26;;;28.17;22.32
69219;BME280;56232;53.384;-2.732;2023-07-29T08:36:33;99828.81;;;29.89;21.38
69219;BME280;56232;53.384;-2.732;2023-07-29T08:38:58;99827.19;;;29.50;21.33
69219;BME280;56232;53.384;-2.732;2023-07-29T08:41:26;99826.57;;;28.72;21.97
69219;BME280;56232;53.384;-2.732;2023-07-29T08:43:52;99831.50;;;28.57;22.42
69219;BME280;56232;53.384;-2.732;2023-07-29T08:46:16;99819.48;;;30.44;21.79
69219;BME280;56232;53.384;-2.732;2023-07-29T08:48:41;99820.07;;;31.39;20.99
69219;BME280;56232;53.384;-2.732;2023-07-29T08:51:08;99818.76;;;32.42;20.03
69219;BME280;56232;53.384;-2.732;2023-07-29T08:53:31;99821.23;;;33.27;19.66
69219;BME280;56232;53.384;-2.732;2023-07-29T08:55:57;99818.56;;;34.31;18.96
69219;BME280;56232;53.384;-2.732;2023-07-29T08:58:22;99816.86;;;34.78;18.94
69219;BME280;56232;53.384;-2.732;2023-07-29T09:00:48;99816.89;;;33.80;18.84
69219;BME280;56232;53.384;-2.732;2023-07-29T09:03:14;99818.69;;;34.36;18.45
69219;BME280;56232;53.384;-2.732;2023-07-29T09:05:38;99820.88;;;34.51;18.50
69219;BME280;56232;53.384;-2.732;2023-07-29T09:08:04;99822.66;;;34.10;18.94
69219;BME280;56232;53.384;-2.732;2023-07-29T09:10:30;99822.50;;;34.83;18.29
69219;BME280;56232;53.384;-2.732;2023-07-29T09:12:55;99828.18;;;34.17;18.55
69219;BME280;56232;53.384;-2.732;2023-07-29T09:15:27;99825.56;;;34.20;18.00
69219;BME280;56232;53.384;-2.732;2023-07-29T09:17:46;99814.32;;;33.90;19.20
69219;BME280;56232;53.384;-2.732;2023-07-29T09:20:11;99819.58;;;33.77;19.59
69219;BME280;56232;53.384;-2.732;2023-07-29T09:22:37;99818.54;;;34.47;19.23
69219;BME280;56232;53.384;-2.732;2023-07-29T09:25:02;99822.31;;;32.80;20.21
69219;BME280;56232;53.384;-2.732;2023-07-29T09:27:28;99826.15;;;33.39;19.47
69219;BME280;56232;53.384;-2.732;2023-07-29T09:29:53;99823.38;;;33.11;19.45
69219;BME280;56232;53.384;-2.732;2023-07-29T09:32:19;99826.61;;;33.18;19.90
69219;BME280;56232;53.384;-2.732;2023-07-29T09:34:44;99825.67;;;33.39;19.83
69219;BME280;56232;53.384;-2.732;2023-07-29T09:37:09;99828.07;;;34.11;19.74
69219;BME280;56232;53.384;-2.732;2023-07-29T09:39:35;99831.19;;;33.23;19.20
69219;BME280;56232;53.384;-2.732;2023-07-29T09:42:00;99829.97;;;33.04;19.42
69219;BME280;56232;53.384;-2.732;2023-07-29T09:44:26;99829.31;;;33.39;19.85
69219;BME280;56232;53.384;-2.732;2023-07-29T09:46:51;99830.99;;;33.32;19.65
69219;BME280;56232;53.384;-2.732;2023-07-29T09:49:17;99827.45;;;33.19;19.89
69219;BME280;56232;53.384;-2.732;2023-07-29T09:51:42;99825.35;;;33.21;19.49
69219;BME280;56232;53.384;-2.732;2023-07-29T09:54:08;99828.23;;;34.07;19.79
69219;BME280;56232;53.384;-2.732;2023-07-29T09:56:33;99826.80;;;34.13;19.70
69219;BME280;56232;53.384;-2.732;2023-07-29T09:58:59;99825.32;;;33.91;19.66
69219;BME280;56232;53.384;-2.732;2023-07-29T10:01:24;99826.68;;;34.68;20.27
69219;BME280;56232;53.384;-2.732;2023-07-29T10:03:56;99831.63;;;33.84;19.99
69219;BME280;56232;53.384;-2.732;2023-07-29T10:06:16;99832.84;;;33.03;19.51
69219;BME280;56232;53.384;-2.732;2023-07-29T10:08:40;99830.33;;;33.08;19.96
69219;BME280;56232;53.384;-2.732;2023-07-29T10:11:06;99833.50;;;33.47;19.57
69219;BME280;56232;53.384;-2.732;2023-07-29T10:13:32;99827.13;;;33.74;20.03
69219;BME280;56232;53.384;-2.732;2023-07-29T10:15:57;99838.94;;;33.70;18.95
69219;BME280;56232;53.384;-2.732;2023-07-29T10:18:23;99834.48;;;33.26;19.92
69219;BME280;56232;53.384;-2.732;2023-07-29T10:20:48;99844.90;;;33.53;20.22
69219;BME280;56232;53.384;-2.732;2023-07-29T10:23:14;99848.75;;;33.30;21.12
69219;BME280;56232;53.384;-2.732;2023-07-29T10:25:43;99851.69;;;32.07;21.42
69219;BME280;56232;53.384;-2.732;2023-07-29T10:28:06;99855.58;;;31.74;20.48
69219;BME280;56232;53.384;-2.732;2023-07-29T10:30:30;99857.62;;;30.11;22.00
69219;BME280;56232;53.384;-2.732;2023-07-29T10:32:58;99861.08;;;30.30;22.44
69219;BME280;56232;53.384;-2.732;2023-07-29T10:35:21;99858.46;;;31.41;21.86
69219;BME280;56232;53.384;-2.732;2023-07-29T10:37:46;99859.77;;;31.32;21.36
69219;BME280;56232;53.384;-2.732;2023-07-29T10:40:12;99859.84;;;31.91;21.24
69219;BME280;56232;53.384;-2.732;2023-07-29T10:42:37;99864.36;;;31.73;21.64
69219;BME280;56232;53.384;-2.732;2023-07-29T10:47:28;99870.34;;;32.84;20.44
69219;BME280;56232;53.384;-2.732;2023-07-29T10:49:56;99869.11;;;32.33;20.52
69219;BME280;56232;53.384;-2.732;2023-07-29T10:52:28;99876.03;;;32.46;20.50
69219;BME280;56232;53.384;-2.732;2023-07-29T10:54:46;99872.63;;;31.20;21.04
69219;BME280;56232;53.384;-2.732;2023-07-29T10:57:13;99879.31;;;30.89;21.37
69219;BME280;56232;53.384;-2.732;2023-07-29T10:59:35;99870.32;;;29.63;22.99
69219;BME280;56232;53.384;-2.732;2023-07-29T11:02:02;99883.00;;;28.81;23.35
69219;BME280;56232;53.384;-2.732;2023-07-29T11:04:28;99880.19;;;28.66;23.99
69219;BME280;56232;53.384;-2.732;2023-07-29T11:11:43;99877.54;;;28.29;24.61
69219;BME280;56232;53.384;-2.732;2023-07-29T11:14:09;99879.53;;;28.15;24.20
69219;BME280;56232;53.384;-2.732;2023-07-29T11:16:34;99880.14;;;28.50;23.97
69219;BME280;56232;53.384;-2.732;2023-07-29T11:19:00;99888.79;;;28.47;24.75
69219;BME280;56232;53.384;-2.732;2023-07-29T11:21:25;99890.85;;;27.55;24.88
69219;BME280;56232;53.384;-2.732;2023-07-29T11:23:53;99891.56;;;26.49;26.28
69219;BME280;56232;53.384;-2.732;2023-07-29T11:26:17;99892.36;;;27.30;25.99
69219;BME280;56232;53.384;-2.732;2023-07-29T11:28:41;99891.37;;;26.74;25.33
69219;BME280;56232;53.384;-2.732;2023-07-29T11:31:07;99889.85;;;27.17;25.55
69219;BME280;56232;53.384;-2.732;2023-07-29T11:33:32;99888.33;;;27.76;25.45
69219;BME280;56232;53.384;-2.732;2023-07-29T11:35:58;99894.32;;;28.38;25.19
69219;BME280;56232;53.384;-2.732;2023-07-29T11:38:23;99887.21;;;29.06;25.15
69219;BME280;56232;53.384;-2.732;2023-07-29T11:40:54;99896.78;;;28.60;25.27
69219;BME280;56232;53.384;-2.732;2023-07-29T11:43:17;99896.53;;;28.47;23.98
69219;BME280;56232;53.384;-2.732;2023-07-29T11:45:40;99895.77;;;27.32;25.89
69219;BME280;56232;53.384;-2.732;2023-07-29T11:48:06;99897.46;;;27.48;25.33
69219;BME280;56232;53.384;-2.732;2023-07-29T11:50:31;99903.68;;;27.63;25.29
69219;BME280;56232;53.384;-2.732;2023-07-29T11:52:58;99911.92;;;27.15;25.64
69219;BME280;56232;53.384;-2.732;2023-07-29T11:55:22;99909.84;;;28.09;25.08
69219;BME280;56232;53.384;-2.732;2023-07-29T11:57:51;99913.33;;;27.15;26.65
69219;BME280;56232;53.384;-2.732;2023-07-29T12:00:15;99909.15;;;28.42;26.27
69219;BME280;56232;53.384;-2.732;2023-07-29T12:02:40;99906.42;;;28.56;26.05
69219;BME280;56232;53.384;-2.732;2023-07-29T12:05:05;99903.55;;;27.61;26.48
69219;BME280;56232;53.384;-2.732;2023-07-29T12:07:30;99905.20;;;27.35;25.53
69219;BME280;56232;53.384;-2.732;2023-07-29T12:09:55;99907.27;;;28.42;26.16
69219;BME280;56232;53.384;-2.732;2023-07-29T12:12:22;99907.70;;;27.51;25.83
69219;BME280;56232;53.384;-2.732;2023-07-29T12:14:46;99901.62;;;27.56;26.04
69219;BME280;56232;53.384;-2.732;2023-07-29T12:17:18;99900.52;;;27.99;25.80
69219;BME280;56232;53.384;-2.732;2023-07-29T12:19:38;99899.81;;;28.38;25.40
69219;BME280;56232;53.384;-2.732;2023-07-29T12:22:05;99889.75;;;28.43;25.26
69219;BME280;56232;53.384;-2.732;2023-07-29T12:24:29;99895.90;;;28.60;24.90
69219;BME280;56232;53.384;-2.732;2023-07-29T12:26:54;99889.95;;;28.32;25.02
69219;BME280;56232;53.384;-2.732;2023-07-29T12:29:20;99887.75;;;28.71;24.50
69219;BME280;56232;53.384;-2.732;2023-07-29T12:31:45;99889.00;;;28.51;24.94
69219;BME280;56232;53.384;-2.732;2023-07-29T12:34:17;99890.54;;;28.49;25.29
69219;BME280;56232;53.384;-2.732;2023-07-29T12:36:42;99889.23;;;27.45;25.57
69219;BME280;56232;53.384;-2.732;2023-07-29T12:39:02;99896.40;;;28.51;25.57
69219;BME280;56232;53.384;-2.732;2023-07-29T12:41:27;99889.41;;;28.85;24.95
69219;BME280;56232;53.384;-2.732;2023-07-29T12:43:53;99897.27;;;29.70;24.77
69219;BME280;56232;53.384;-2.732;2023-07-29T12:46:18;99894.71;;;28.52;25.38
69219;BME280;56232;53.384;-2.732;2023-07-29T12:48:43;99901.42;;;27.63;26.30